Time;durP1;ratioP1;P1;durP2;ratioP2;P2;SDS_P1;SDS_P2;PMS_P1;PMS_P2;Temp;Humidity;BMP_temperature;BMP_pressure;BME280_temperature;BME280_humidity;BME280_pressure;Samples;Min_cycle;Max_cycle;Signal;HPM_P1;HPM_P2
2021/04/02 00:01:48;;;;;;;0.83;0.83;;;4.40;99.90;;;;;;4963866;28;20499;-73
2021/04/02 00:04:14;;;;;;;0.70;0.70;;;4.50;99.90;;;;;;4957893;28;20263;-73
2021/04/02 00:06:41;;;;;;;7.13;1.67;;;4.40;99.90;;;;;;4962101;28;20201;-72
2021/04/02 00:09:08;;;;;;;120.40;16.90;;;4.50;99.90;;;;;;4956236;28;20307;-72
2021/04/02 00:11:35;;;;;;;67.07;12.60;;;4.50;99.90;;;;;;4960285;28;20200;-73
2021/04/02 00:14:02;;;;;;;31.77;6.20;;;4.50;99.90;;;;;;4955803;28;20209;-72
2021/04/02 00:16:28;;;;;;;11.77;3.23;;;4.50;99.90;;;;;;4962820;28;20259;-74
2021/04/02 00:18:55;;;;;;;4.43;1.90;;;4.50;99.90;;;;;;4941224;29;20257;-72
2021/04/02 00:21:22;;;;;;;1.93;1.10;;;4.50;99.90;;;;;;4955055;28;20212;-72
2021/04/02 00:23:48;;;;;;;2.60;0.90;;;4.50;99.90;;;;;;4954071;28;20201;-72
2021/04/02 00:26:17;;;;;;;1.20;0.80;;;4.50;99.90;;;;;;4952685;28;20303;-73
2021/04/02 00:28:44;;;;;;;2.20;0.90;;;4.50;99.90;;;;;;4950742;28;20200;-74
2021/04/02 00:31:11;;;;;;;0.67;0.67;;;4.50;99.90;;;;;;4969106;28;20232;-74
2021/04/02 00:33:38;;;;;;;0.93;0.83;;;4.50;99.90;;;;;;4970862;28;20299;-73
2021/04/02 00:36:06;;;;;;;0.80;0.80;;;4.50;99.90;;;;;;4968037;28;20208;-72
2021/04/02 00:38:34;;;;;;;1.23;0.77;;;4.50;99.90;;;;;;4950912;28;20204;-73
2021/04/02 00:41:04;;;;;;;0.73;0.73;;;4.50;99.90;;;;;;4968441;28;20300;-73
2021/04/02 00:43:34;;;;;;;0.80;0.80;;;4.50;99.90;;;;;;4967714;28;20239;-72
2021/04/02 00:46:01;;;;;;;1.73;1.40;;;4.40;99.90;;;;;;4965528;28;20224;-72
2021/04/02 00:48:28;;;;;;;1.83;1.30;;;4.40;99.90;;;;;;4968658;28;20211;-73
2021/04/02 00:50:56;;;;;;;1.20;1.10;;;4.40;99.90;;;;;;4962642;28;20204;-73
2021/04/02 00:53:24;;;;;;;0.90;0.90;;;4.40;99.90;;;;;;4969452;28;20239;-72
2021/04/02 00:55:52;;;;;;;1.17;1.07;;;4.40;99.90;;;;;;4960198;28;20197;-73
2021/04/02 00:58:21;;;;;;;1.07;0.93;;;4.40;99.90;;;;;;4971011;28;20204;-73
2021/04/02 01:00:50;;;;;;;1.27;1.17;;;4.40;99.90;;;;;;4964038;28;20727;-73
2021/04/02 01:03:17;;;;;;;0.90;0.90;;;4.40;99.90;;;;;;4969911;28;20208;-73
2021/04/02 01:05:46;;;;;;;2.53;1.13;;;4.40;99.90;;;;;;4964241;28;20197;-73
2021/04/02 01:08:16;;;;;;;1.17;1.07;;;4.30;99.90;;;;;;4970455;28;20225;-73
2021/04/02 01:10:45;;;;;;;96.90;12.67;;;4.40;99.90;;;;;;4958270;28;20201;-73
2021/04/02 01:13:16;;;;;;;110.87;16.90;;;4.40;99.90;;;;;;4967175;28;20212;-73
2021/04/02 01:15:45;;;;;;;42.43;8.87;;;4.40;99.90;;;;;;4963729;28;20212;-73
2021/04/02 01:18:22;;;;;;;15.03;3.70;;;4.40;99.90;;;;;;4965923;28;20205;-73
2021/04/02 01:20:52;;;;;;;8.00;2.60;;;4.30;99.90;;;;;;4964101;28;20711;-73
2021/04/02 01:23:23;;;;;;;3.10;1.70;;;4.30;99.90;;;;;;4955817;28;20213;-72
2021/04/02 01:25:59;;;;;;;1.93;1.30;;;4.30;99.90;;;;;;4957017;28;20690;-73
2021/04/02 01:28:53;;;;;;;2.53;1.23;;;4.30;99.90;;;;;;4946377;28;20316;-72
2021/04/02 01:31:22;;;;;;;1.40;1.10;;;4.30;99.90;;;;;;4956546;28;20329;-73
2021/04/02 01:33:49;;;;;;;1.60;1.10;;;4.30;99.90;;;;;;4976114;28;20669;-73
2021/04/02 01:36:17;;;;;;;1.87;1.10;;;4.30;99.90;;;;;;4964850;28;20744;-73
2021/04/02 01:38:44;;;;;;;1.07;1.00;;;4.20;99.90;;;;;;4972445;28;20796;-72
2021/04/02 01:41:13;;;;;;;1.20;1.10;;;4.20;99.90;;;;;;4970367;28;20294;-73
2021/04/02 01:43:46;;;;;;;1.50;1.20;;;4.20;99.90;;;;;;4981348;28;20188;-73
2021/04/02 01:46:17;;;;;;;2.00;1.20;;;4.20;99.90;;;;;;4976437;28;20212;-73
2021/04/02 01:48:46;;;;;;;2.10;1.20;;;4.10;99.90;;;;;;4976339;28;20193;-74
2021/04/02 01:51:14;;;;;;;1.57;1.10;;;4.10;99.90;;;;;;4966199;28;20188;-74
2021/04/02 01:53:47;;;;;;;1.30;1.20;;;4.10;99.90;;;;;;4967493;28;20200;-71
2021/04/02 01:56:19;;;;;;;1.83;1.30;;;4.10;99.90;;;;;;4965435;28;20233;-73
2021/04/02 01:58:47;;;;;;;2.70;1.07;;;4.00;99.90;;;;;;4949184;29;20736;-73
2021/04/02 02:01:17;;;;;;;1.53;1.43;;;4.00;99.90;;;;;;4964095;28;20475;-72
2021/04/02 02:03:49;;;;;;;1.20;1.10;;;4.00;99.90;;;;;;4966150;28;20248;-73
2021/04/02 02:06:18;;;;;;;1.20;1.10;;;4.00;99.90;;;;;;4965899;28;20204;-72
2021/04/02 02:08:58;;;;;;;2.03;1.17;;;4.00;99.90;;;;;;4961684;28;20201;-72
2021/04/02 02:11:33;;;;;;;1.10;1.00;;;4.00;99.90;;;;;;4959699;28;20255;-72
2021/04/02 02:14:06;;;;;;;1.27;1.07;;;4.00;99.90;;;;;;4947762;29;20222;-72
2021/04/02 02:16:41;;;;;;;0.97;0.90;;;3.90;99.90;;;;;;4949191;29;20576;-72
2021/04/02 02:19:12;;;;;;;1.10;1.10;;;3.90;99.90;;;;;;4961822;28;20205;-73
2021/04/02 02:21:41;;;;;;;1.43;1.30;;;3.90;99.90;;;;;;4962470;28;20229;-73
2021/04/02 02:24:09;;;;;;;2.40;1.30;;;3.90;99.90;;;;;;4961380;28;20284;-73
2021/04/02 02:26:37;;;;;;;1.33;1.23;;;3.90;99.90;;;;;;4957937;28;20204;-73
2021/04/02 02:29:05;;;;;;;1.13;1.03;;;3.90;99.90;;;;;;4963632;28;20197;-72
2021/04/02 02:31:32;;;;;;;1.43;1.20;;;3.90;99.90;;;;;;4956351;28;20581;-73
2021/04/02 02:34:01;;;;;;;1.00;1.00;;;3.90;99.90;;;;;;4957303;28;20201;-72
2021/04/02 02:36:35;;;;;;;1.10;1.10;;;3.80;99.90;;;;;;4967641;28;20226;-73
2021/04/02 02:39:08;;;;;;;0.90;0.90;;;3.90;99.90;;;;;;4969094;28;20640;-72
2021/04/02 02:41:40;;;;;;;1.03;1.00;;;3.80;99.90;;;;;;4967242;28;20220;-72
2021/04/02 02:44:08;;;;;;;1.27;1.10;;;3.80;99.90;;;;;;4966621;28;20207;-71
2021/04/02 02:46:36;;;;;;;1.00;1.00;;;3.80;99.90;;;;;;4967779;28;20214;-73
2021/04/02 02:49:08;;;;;;;1.20;1.10;;;3.80;99.90;;;;;;4961699;28;20567;-72
2021/04/02 02:51:38;;;;;;;1.10;1.10;;;3.80;99.90;;;;;;4955047;28;20209;-71
2021/04/02 02:54:08;;;;;;;1.43;1.20;;;3.70;99.90;;;;;;4962148;28;20204;-73
2021/04/02 02:56:39;;;;;;;1.10;1.10;;;3.70;99.90;;;;;;4962138;28;20216;-71
2021/04/02 02:59:10;;;;;;;0.90;0.90;;;3.70;99.90;;;;;;4960360;28;20632;-73
2021/04/02 03:01:40;;;;;;;1.00;1.00;;;3.70;99.90;;;;;;4963079;28;20224;-73
2021/04/02 03:04:09;;;;;;;1.63;1.00;;;3.70;99.90;;;;;;4954046;28;20205;-73
2021/04/02 03:06:40;;;;;;;1.07;1.00;;;3.70;99.90;;;;;;4951638;28;20673;-73
2021/04/02 03:09:10;;;;;;;0.80;0.80;;;3.70;99.90;;;;;;4949564;28;20299;-74
2021/04/02 03:11:38;;;;;;;1.17;1.07;;;3.70;99.90;;;;;;4957900;28;20294;-73
2021/04/02 03:14:07;;;;;;;0.90;0.90;;;3.60;99.90;;;;;;4954895;28;20209;-73
2021/04/02 03:16:43;;;;;;;1.30;1.20;;;3.60;99.90;;;;;;4958619;28;20220;-73
2021/04/02 03:19:13;;;;;;;1.10;1.10;;;3.60;99.90;;;;;;4957073;28;20684;-72
2021/04/02 03:21:44;;;;;;;1.03;0.97;;;3.60;99.90;;;;;;4956999;28;20220;-72
2021/04/02 03:24:20;;;;;;;1.23;0.90;;;3.60;99.90;;;;;;4955751;28;20201;-72
2021/04/02 03:26:50;;;;;;;1.03;1.03;;;3.60;99.90;;;;;;4952239;28;20216;-72
2021/04/02 03:29:18;;;;;;;0.90;0.90;;;3.50;99.90;;;;;;4964754;28;20251;-72
2021/04/02 03:31:47;;;;;;;0.90;0.90;;;3.50;99.90;;;;;;4971052;28;20251;-72
2021/04/02 03:34:19;;;;;;;0.80;0.80;;;3.50;99.90;;;;;;4970660;28;20214;-71
2021/04/02 03:36:50;;;;;;;1.43;1.00;;;3.50;99.90;;;;;;4954565;28;20299;-72
2021/04/02 03:39:27;;;;;;;1.43;1.20;;;3.40;99.90;;;;;;4959196;28;20338;-72
2021/04/02 03:41:58;;;;;;;1.20;1.10;;;3.40;99.90;;;;;;4968477;28;20221;-72
2021/04/02 03:44:30;;;;;;;1.20;1.10;;;3.40;99.90;;;;;;4966595;28;20211;-72
2021/04/02 03:46:59;;;;;;;2.17;1.33;;;3.40;99.90;;;;;;4968694;28;20208;-72
2021/04/02 03:49:33;;;;;;;1.40;1.30;;;3.40;99.90;;;;;;4961806;28;20290;-72
2021/04/02 03:52:05;;;;;;;1.53;1.30;;;3.40;99.90;;;;;;4961478;28;20696;-71
2021/04/02 03:54:34;;;;;;;1.47;1.37;;;3.40;99.90;;;;;;4961129;28;20299;-72
2021/04/02 03:57:05;;;;;;;1.77;1.57;;;3.40;99.90;;;;;;4964267;28;20307;-72
2021/04/02 03:59:35;;;;;;;2.63;1.83;;;3.30;99.90;;;;;;4960498;28;20228;-71
2021/04/02 04:02:05;;;;;;;1.70;1.60;;;3.30;99.90;;;;;;4959709;28;20224;-72
2021/04/02 04:04:33;;;;;;;1.47;1.37;;;3.30;99.90;;;;;;4964830;28;20197;-73
2021/04/02 04:07:07;;;;;;;2.90;2.70;;;3.40;99.90;;;;;;4956849;28;20247;-73
2021/04/02 04:09:37;;;;;;;2.70;2.33;;;3.40;99.90;;;;;;4963239;28;20212;-72
2021/04/02 04:12:12;;;;;;;2.30;2.10;;;3.30;99.90;;;;;;4958457;28;20205;-73
2021/04/02 04:14:47;;;;;;;2.17;1.97;;;3.30;99.90;;;;;;4964986;28;20303;-73
2021/04/02 04:17:20;;;;;;;2.20;2.10;;;3.40;99.90;;;;;;4945849;29;20275;-72
2021/04/02 04:19:52;;;;;;;2.00;1.63;;;3.30;99.90;;;;;;4952701;28;20628;-72
2021/04/02 04:22:25;;;;;;;1.50;1.40;;;3.30;99.90;;;;;;4949905;28;20346;-73
2021/04/02 04:24:54;;;;;;;1.60;1.50;;;3.40;99.90;;;;;;4955343;28;20212;-72
2021/04/02 04:27:22;;;;;;;1.40;1.30;;;3.40;99.90;;;;;;4950726;28;20193;-73
2021/04/02 04:29:51;;;;;;;1.70;1.60;;;3.40;99.90;;;;;;4968025;28;20558;-73
2021/04/02 04:32:20;;;;;;;1.40;1.30;;;3.40;99.90;;;;;;4971752;28;20228;-73
2021/04/02 04:34:50;;;;;;;1.40;1.30;;;3.40;99.90;;;;;;4965312;28;20209;-72
2021/04/02 04:37:18;;;;;;;2.93;1.80;;;3.50;99.90;;;;;;4962263;28;20283;-72
2021/04/02 04:39:48;;;;;;;1.50;1.40;;;3.40;99.90;;;;;;4969444;28;20201;-72
2021/04/02 04:42:17;;;;;;;1.40;1.30;;;3.50;99.90;;;;;;4969157;28;20529;-71
2021/04/02 04:44:47;;;;;;;1.30;1.30;;;3.50;99.90;;;;;;4950551;29;20571;-72
2021/04/02 04:47:15;;;;;;;1.80;1.70;;;3.50;99.90;;;;;;4960573;28;20289;-72
2021/04/02 04:49:42;;;;;;;1.50;1.40;;;3.50;99.90;;;;;;4967235;28;20230;-73
2021/04/02 04:52:13;;;;;;;1.70;1.30;;;3.60;99.90;;;;;;4961762;28;20679;-73
2021/04/02 04:54:45;;;;;;;1.50;1.40;;;3.60;99.90;;;;;;4967526;28;20596;-73
2021/04/02 04:57:14;;;;;;;1.63;1.43;;;3.60;99.90;;;;;;4951788;28;20210;-72
2021/04/02 04:59:42;;;;;;;1.57;1.40;;;3.60;99.90;;;;;;4961425;28;20212;-72
2021/04/02 05:02:10;;;;;;;1.60;1.30;;;3.60;99.90;;;;;;4963383;28;20256;-73
2021/04/02 05:04:38;;;;;;;1.67;1.57;;;3.70;99.90;;;;;;4965762;28;20322;-73
2021/04/02 05:07:07;;;;;;;1.60;1.50;;;3.70;99.90;;;;;;4963189;28;20200;-73
2021/04/02 05:09:37;;;;;;;2.23;1.70;;;3.70;99.90;;;;;;4966145;28;20204;-73
2021/04/02 05:12:07;;;;;;;2.17;1.97;;;3.70;99.90;;;;;;4952012;28;20197;-73
2021/04/02 05:14:35;;;;;;;1.53;1.43;;;3.80;99.90;;;;;;4966161;28;20207;-73
2021/04/02 05:17:03;;;;;;;5.00;1.80;;;3.90;99.90;;;;;;4960489;28;20213;-72
2021/04/02 05:19:31;;;;;;;3.97;1.57;;;4.00;99.90;;;;;;4959938;28;20196;-72
2021/04/02 05:21:57;;;;;;;2.23;2.03;;;4.10;99.90;;;;;;4958742;28;20225;-73
2021/04/02 05:24:24;;;;;;;1.93;1.77;;;4.30;99.90;;;;;;4964892;28;20192;-73
2021/04/02 05:26:52;;;;;;;1.73;1.60;;;4.40;99.90;;;;;;4951560;28;20658;-74
2021/04/02 05:29:19;;;;;;;1.53;1.43;;;4.50;99.90;;;;;;4963699;28;20231;-73
2021/04/02 05:31:47;;;;;;;1.53;1.30;;;4.70;99.90;;;;;;4969875;28;20268;-73
2021/04/02 05:34:14;;;;;;;4.33;1.37;;;4.70;99.90;;;;;;4959400;28;20297;-72
2021/04/02 05:36:40;;;;;;;1.40;1.30;;;4.90;99.90;;;;;;4976982;28;20229;-72
2021/04/02 05:39:07;;;;;;;1.47;1.27;;;5.00;99.90;;;;;;4948597;29;20204;-72
2021/04/02 05:41:43;;;;;;;1.33;1.23;;;5.20;99.90;;;;;;4965480;28;20228;-72
2021/04/02 05:44:14;;;;;;;1.93;1.40;;;5.30;99.90;;;;;;4961099;28;20207;-72
2021/04/02 05:46:44;;;;;;;1.60;1.50;;;5.40;99.90;;;;;;4968463;28;20583;-72
2021/04/02 05:49:11;;;;;;;1.80;1.70;;;5.40;99.90;;;;;;4960920;28;20194;-72
2021/04/02 05:51:40;;;;;;;2.10;1.90;;;5.50;99.90;;;;;;4954396;28;20537;-73
2021/04/02 05:54:10;;;;;;;2.33;2.10;;;5.50;99.90;;;;;;4955686;28;20213;-72
2021/04/02 05:56:37;;;;;;;3.57;2.60;;;5.50;99.90;;;;;;4963914;28;20199;-72
2021/04/02 05:59:04;;;;;;;3.07;2.70;;;5.50;99.90;;;;;;4964197;28;20598;-72
2021/04/02 06:01:33;;;;;;;4.13;2.50;;;5.50;99.90;;;;;;4967098;28;20230;-72
2021/04/02 06:04:00;;;;;;;2.17;1.90;;;5.60;99.90;;;;;;4964045;28;20669;-72
2021/04/02 06:06:28;;;;;;;2.30;1.93;;;5.80;99.90;;;;;;4959320;28;20571;-72
2021/04/02 06:08:55;;;;;;;2.53;1.80;;;6.10;99.90;;;;;;4950969;28;20220;-72
2021/04/02 06:11:21;;;;;;;2.27;2.00;;;6.60;99.90;;;;;;4964726;28;20196;-72
2021/04/02 06:13:48;;;;;;;2.37;1.70;;;7.10;99.90;;;;;;4960863;28;20395;-72
2021/04/02 06:16:15;;;;;;;3.03;2.13;;;7.50;99.90;;;;;;4965795;28;20215;-72
2021/04/02 06:18:42;;;;;;;2.13;1.93;;;7.60;99.90;;;;;;4960239;28;20217;-73
2021/04/02 06:21:09;;;;;;;2.97;2.10;;;7.80;99.90;;;;;;4962786;28;20232;-73
2021/04/02 06:23:37;;;;;;;2.40;2.10;;;8.00;99.90;;;;;;4958732;28;20284;-72
2021/04/02 06:26:09;;;;;;;1.93;1.80;;;8.30;99.90;;;;;;4961185;28;20195;-72
2021/04/02 06:28:37;;;;;;;5.33;2.37;;;8.70;99.90;;;;;;4950017;28;20667;-72
2021/04/02 06:31:05;;;;;;;2.33;2.10;;;9.00;99.90;;;;;;4959829;28;20221;-73
2021/04/02 06:33:34;;;;;;;2.80;1.80;;;9.60;99.90;;;;;;4972843;28;20208;-71
2021/04/02 06:36:03;;;;;;;3.53;2.30;;;10.00;99.90;;;;;;4970181;28;20295;-71
2021/04/02 06:38:32;;;;;;;3.43;2.20;;;10.40;99.90;;;;;;4950548;28;20257;-72
2021/04/02 06:41:03;;;;;;;2.93;2.00;;;10.80;99.90;;;;;;4939119;29;20214;-71
2021/04/02 06:43:43;;;;;;;2.53;2.00;;;11.20;99.90;;;;;;4944825;29;20205;-71
2021/04/02 06:46:12;;;;;;;1.80;1.70;;;11.70;99.90;;;;;;4951627;28;20587;-72
2021/04/02 06:48:39;;;;;;;2.20;1.73;;;12.00;99.90;;;;;;4957708;28;20202;-71
2021/04/02 06:51:13;;;;;;;2.90;2.20;;;12.20;99.90;;;;;;4960714;28;20229;-72
2021/04/02 06:53:42;;;;;;;2.97;2.27;;;12.40;99.90;;;;;;4963246;28;20210;-71
2021/04/02 06:56:11;;;;;;;4.63;2.70;;;12.80;99.90;;;;;;4960007;28;20611;-72
2021/04/02 06:58:39;;;;;;;4.77;2.13;;;13.30;99.40;;;;;;4960892;28;20545;-72
2021/04/02 07:01:06;;;;;;;3.13;2.50;;;13.90;98.40;;;;;;4955246;28;20321;-72
2021/04/02 07:03:35;;;;;;;3.07;2.30;;;14.40;96.40;;;;;;4959697;28;20199;-72
2021/04/02 07:06:04;;;;;;;3.47;2.63;;;14.90;95.30;;;;;;4948954;28;20196;-71
2021/04/02 07:08:33;;;;;;;2.80;2.07;;;15.30;94.20;;;;;;4957804;28;20611;-72
2021/04/02 07:11:00;;;;;;;2.50;1.97;;;15.80;93.20;;;;;;4956917;28;20188;-71
2021/04/02 07:13:32;;;;;;;2.97;2.30;;;16.10;91.60;;;;;;4949726;28;20202;-71
2021/04/02 07:15:59;;;;;;;2.47;1.90;;;16.40;90.90;;;;;;4952598;28;20194;-72
2021/04/02 07:18:27;;;;;;;4.33;2.37;;;16.30;88.00;;;;;;4944570;28;20225;-71
2021/04/02 07:20:53;;;;;;;3.57;2.40;;;16.30;86.10;;;;;;4949596;28;20641;-72
2021/04/02 07:23:20;;;;;;;2.97;2.20;;;16.60;85.00;;;;;;4956081;28;20205;-72
2021/04/02 07:25:48;;;;;;;3.43;1.90;;;16.80;84.30;;;;;;4950207;28;20199;-71
2021/04/02 07:28:17;;;;;;;4.83;2.40;;;17.80;80.60;;;;;;4955295;28;20566;-71
2021/04/02 07:30:44;;;;;;;2.53;1.90;;;18.40;77.20;;;;;;4965232;28;20505;-72
2021/04/02 07:33:13;;;;;;;3.13;1.90;;;18.90;74.20;;;;;;4952195;28;20621;-72
2021/04/02 07:35:41;;;;;;;5.13;2.30;;;19.20;71.90;;;;;;4954885;28;20260;-72
2021/04/02 07:38:15;;;;;;;2.17;1.97;;;19.20;68.80;;;;;;4954523;28;20200;-72
2021/04/02 07:40:47;;;;;;;3.70;2.60;;;19.00;68.40;;;;;;4962458;28;20244;-73
2021/04/02 07:43:15;;;;;;;3.60;2.30;;;18.70;66.00;;;;;;4942831;28;20295;-73
2021/04/02 07:45:42;;;;;;;2.00;1.80;;;18.30;65.90;;;;;;4956304;28;20821;-70
2021/04/02 07:48:15;;;;;;;2.20;1.90;;;18.50;66.60;;;;;;4966782;28;20279;-72
2021/04/02 07:50:46;;;;;;;2.40;1.73;;;18.80;66.10;;;;;;4942485;28;20357;-71
2021/04/02 07:53:17;;;;;;;1.83;1.63;;;19.40;65.70;;;;;;4948035;28;20248;-72
2021/04/02 07:56:01;;;;;;;2.10;1.90;;;20.20;64.10;;;;;;4947799;28;20448;-71
2021/04/02 07:58:30;;;;;;;2.87;1.60;;;20.30;62.70;;;;;;4948623;28;20218;-72
2021/04/02 08:00:58;;;;;;;2.35;1.92;;;20.20;62.10;;;;;;4951697;28;20214;-73
2021/04/02 08:03:27;;;;;;;3.90;2.13;;;21.30;61.70;;;;;;4939831;28;20203;-73
2021/04/02 08:06:00;;;;;;;2.93;2.13;;;21.70;59.40;;;;;;4949848;28;20208;-72
2021/04/02 08:08:38;;;;;;;2.22;2.03;;;21.50;58.40;;;;;;4955555;28;20202;-72
2021/04/02 08:11:10;;;;;;;2.50;2.00;;;21.10;58.20;;;;;;4955036;28;20192;-73
2021/04/02 08:13:51;;;;;;;2.53;1.95;;;20.90;57.70;;;;;;4946012;28;20203;-73
2021/04/02 08:16:50;;;;;;;2.38;2.00;;;20.70;57.40;;;;;;4954735;28;20204;-72
2021/04/02 08:19:24;;;;;;;1.70;1.60;;;20.30;57.30;;;;;;4957066;28;20210;-73
2021/04/02 08:21:53;;;;;;;2.90;2.40;;;20.20;57.30;;;;;;4952224;28;20219;-72
2021/04/02 08:24:21;;;;;;;2.38;2.17;;;20.40;57.00;;;;;;4956368;28;20200;-72
2021/04/02 08:26:49;;;;;;;2.35;2.10;;;21.60;56.20;;;;;;4947143;28;20198;-73
2021/04/02 08:29:19;;;;;;;2.22;2.03;;;23.40;54.80;;;;;;4944012;28;20206;-72
2021/04/02 08:31:49;;;;;;;2.45;2.17;;;25.40;52.50;;;;;;4955479;28;20363;-73
2021/04/02 08:34:17;;;;;;;3.65;2.47;;;27.20;49.40;;;;;;4955178;28;20439;-73
2021/04/02 08:36:46;;;;;;;2.45;1.90;;;28.80;45.70;;;;;;4962153;28;20199;-72
2021/04/02 08:39:15;;;;;;;2.38;1.95;;;29.90;43.50;;;;;;4948668;28;20301;-72
2021/04/02 08:41:41;;;;;;;2.00;1.90;;;30.80;41.90;;;;;;4965089;28;20576;-74
2021/04/02 08:44:08;;;;;;;2.83;2.33;;;31.80;40.30;;;;;;4942510;28;20292;-74
2021/04/02 08:46:42;;;;;;;2.83;2.00;;;32.90;38.50;;;;;;4951373;28;20216;-71
2021/04/02 08:49:10;;;;;;;2.60;2.40;;;33.80;36.10;;;;;;4942775;28;20674;-72
2021/04/02 08:51:38;;;;;;;3.88;2.58;;;34.30;34.00;;;;;;4950470;28;20252;-72
2021/04/02 08:54:11;;;;;;;2.83;2.50;;;34.90;33.10;;;;;;4950448;28;20761;-72
2021/04/02 08:56:37;;;;;;;3.03;2.45;;;34.80;31.30;;;;;;4940537;28;20198;-71
2021/04/02 08:59:08;;;;;;;2.78;2.45;;;34.80;31.60;;;;;;4952405;28;20296;-71
2021/04/02 09:01:38;;;;;;;3.03;2.75;;;35.70;31.10;;;;;;4952039;28;20244;-71
2021/04/02 09:04:08;;;;;;;2.55;2.35;;;36.90;30.00;;;;;;4953029;28;20197;-71
2021/04/02 09:06:35;;;;;;;3.35;2.30;;;37.60;29.40;;;;;;4958059;28;20193;-73
2021/04/02 09:09:02;;;;;;;2.10;2.00;;;37.40;29.00;;;;;;4944905;28;20228;-74
2021/04/02 09:11:29;;;;;;;2.58;2.35;;;36.60;28.60;;;;;;4963947;28;20256;-72
2021/04/02 09:13:56;;;;;;;2.75;2.30;;;36.30;28.20;;;;;;4958355;28;20201;-73
2021/04/02 09:16:22;;;;;;;1.88;1.77;;;36.90;28.20;;;;;;4958919;28;20288;-72
2021/04/02 09:18:51;;;;;;;2.45;2.25;;;38.10;27.60;;;;;;4953435;28;20202;-71
2021/04/02 09:21:19;;;;;;;1.75;1.65;;;39.10;26.90;;;;;;4955642;28;20209;-72
2021/04/02 09:23:48;;;;;;;2.00;1.90;;;39.90;26.10;;;;;;4964935;28;20243;-73
2021/04/02 09:26:15;;;;;;;2.13;2.03;;;40.70;26.10;;;;;;4952685;28;20197;-71
2021/04/02 09:28:43;;;;;;;2.00;1.77;;;41.20;25.10;;;;;;4942322;28;20728;-71
2021/04/02 09:31:18;;;;;;;2.13;1.92;;;41.50;24.20;;;;;;4969509;28;20224;-71
2021/04/02 09:33:47;;;;;;;2.83;1.95;;;41.60;23.90;;;;;;4966031;28;20271;-72
2021/04/02 09:36:14;;;;;;;2.03;1.92;;;41.70;23.40;;;;;;4966860;28;20205;-72
2021/04/02 09:38:43;;;;;;;5.65;2.17;;;41.80;23.10;;;;;;4948916;28;20590;-71
2021/04/02 09:41:10;;;;;;;2.28;2.13;;;41.80;22.80;;;;;;4960020;28;20251;-73
2021/04/02 09:43:42;;;;;;;2.00;1.90;;;41.70;21.90;;;;;;4959290;28;20203;-71
2021/04/02 09:46:13;;;;;;;1.90;1.80;;;41.60;22.30;;;;;;4955434;28;20204;-71
2021/04/02 09:48:39;;;;;;;2.72;2.00;;;41.80;22.80;;;;;;4964462;28;20200;-70
2021/04/02 09:51:06;;;;;;;2.10;1.95;;;42.10;22.80;;;;;;4950767;28;20213;-74
2021/04/02 09:53:33;;;;;;;2.08;1.63;;;42.20;22.60;;;;;;4947804;28;20193;-71
2021/04/02 09:56:01;;;;;;;2.10;2.00;;;42.20;22.40;;;;;;4955968;28;20196;-72
2021/04/02 09:58:27;;;;;;;1.80;1.70;;;42.30;22.10;;;;;;4956391;28;20596;-67
2021/04/02 10:00:54;;;;;;;2.20;2.10;;;42.30;22.10;;;;;;4964443;28;20692;-68
2021/04/02 10:03:21;;;;;;;2.72;2.05;;;42.20;21.90;;;;;;4956718;28;20541;-71
2021/04/02 10:05:47;;;;;;;1.90;1.75;;;41.30;21.30;;;;;;4953213;28;20629;-69
2021/04/02 10:08:14;;;;;;;2.00;1.90;;;39.70;21.60;;;;;;4960766;28;20671;-69
2021/04/02 10:10:41;;;;;;;1.60;1.50;;;37.90;22.00;;;;;;4950130;28;20649;-69
2021/04/02 10:13:08;;;;;;;2.35;1.45;;;36.30;22.30;;;;;;4960283;28;20267;-70
2021/04/02 10:15:35;;;;;;;1.60;1.50;;;36.10;22.30;;;;;;4949353;28;20189;-68
2021/04/02 10:18:01;;;;;;;2.35;1.42;;;37.00;22.00;;;;;;4946076;28;20287;-68
2021/04/02 10:20:28;;;;;;;1.88;1.67;;;37.90;21.70;;;;;;4954856;28;20657;-69
2021/04/02 10:22:55;;;;;;;1.98;1.88;;;38.60;21.60;;;;;;4949662;28;20196;-71
2021/04/02 10:25:21;;;;;;;1.90;1.80;;;39.30;21.20;;;;;;4949406;28;20193;-69
2021/04/02 10:27:48;;;;;;;1.70;1.60;;;39.90;21.10;;;;;;4962369;28;20196;-70
2021/04/02 10:30:17;;;;;;;1.92;1.83;;;40.40;20.90;;;;;;4957694;28;20259;-70
2021/04/02 10:32:44;;;;;;;2.08;1.98;;;40.70;20.70;;;;;;4969168;28;20235;-70
2021/04/02 10:35:12;;;;;;;2.67;1.85;;;40.90;19.90;;;;;;4953182;28;20209;-69
2021/04/02 10:37:39;;;;;;;1.85;1.75;;;40.90;19.90;;;;;;4959657;28;20196;-69
2021/04/02 10:40:07;;;;;;;1.80;1.70;;;41.00;20.00;;;;;;4951554;28;20215;-67
2021/04/02 10:42:33;;;;;;;2.00;1.90;;;41.10;19.80;;;;;;4954237;28;20575;-69
2021/04/02 10:45:00;;;;;;;2.00;1.90;;;41.30;19.90;;;;;;4958204;28;20204;-73
2021/04/02 10:47:27;;;;;;;1.80;1.80;;;41.50;19.90;;;;;;4946299;28;20201;-69
2021/04/02 10:49:54;;;;;;;2.65;2.40;;;41.80;20.10;;;;;;4952579;28;20228;-69
2021/04/02 10:52:21;;;;;;;2.20;1.92;;;41.80;19.40;;;;;;4950618;28;20190;-68
2021/04/02 10:54:47;;;;;;;2.78;2.58;;;41.60;19.60;;;;;;4950885;28;20201;-69
2021/04/02 10:57:15;;;;;;;2.10;2.00;;;41.70;19.70;;;;;;4943733;28;20201;-70
2021/04/02 10:59:42;;;;;;;2.22;2.13;;;41.80;19.90;;;;;;4950880;28;20208;-69
2021/04/02 11:02:11;;;;;;;2.05;1.95;;;41.80;19.60;;;;;;4964469;28;20250;-69
2021/04/02 11:04:40;;;;;;;2.40;2.10;;;41.80;19.60;;;;;;4958009;28;20200;-70
2021/04/02 11:07:07;;;;;;;3.38;2.30;;;41.60;19.20;;;;;;4952802;28;20205;-68
2021/04/02 11:09:34;;;;;;;1.80;1.80;;;41.30;19.20;;;;;;4939487;28;20634;-69
2021/04/02 11:12:01;;;;;;;2.30;2.20;;;41.10;19.40;;;;;;4942056;28;20220;-70
2021/04/02 11:14:27;;;;;;;2.67;1.90;;;40.90;19.30;;;;;;4947292;28;20194;-70
2021/04/02 11:16:54;;;;;;;1.60;1.55;;;40.70;19.20;;;;;;4944856;28;20213;-70
2021/04/02 11:19:21;;;;;;;1.60;1.60;;;40.10;19.30;;;;;;4958213;28;20608;-68
2021/04/02 11:21:48;;;;;;;1.67;1.58;;;39.50;19.40;;;;;;4957727;28;20197;-70
2021/04/02 11:24:15;;;;;;;1.88;1.77;;;39.20;19.60;;;;;;4960710;28;20201;-71
2021/04/02 11:26:43;;;;;;;2.80;1.67;;;39.00;19.60;;;;;;4964344;28;20214;-69
2021/04/02 11:29:09;;;;;;;1.58;1.48;;;38.50;19.60;;;;;;4973126;28;20210;-71
2021/04/02 11:31:36;;;;;;;1.90;1.48;;;37.90;19.80;;;;;;4954933;28;20232;-71
2021/04/02 11:34:03;;;;;;;2.15;1.45;;;37.70;20.00;;;;;;4964241;28;20207;-69
2021/04/02 11:36:29;;;;;;;1.67;1.52;;;37.40;20.00;;;;;;4961376;28;20279;-70
2021/04/02 11:38:57;;;;;;;1.40;1.30;;;37.00;20.10;;;;;;4943446;28;20547;-70
2021/04/02 11:41:24;;;;;;;1.40;1.30;;;36.80;20.40;;;;;;4961266;28;20195;-69
2021/04/02 11:43:51;;;;;;;1.48;1.38;;;36.60;20.40;;;;;;4961600;28;20192;-69
2021/04/02 11:46:19;;;;;;;1.10;1.10;;;36.00;20.10;;;;;;4961401;28;20201;-69
2021/04/02 11:48:45;;;;;;;1.10;1.10;;;35.10;19.80;;;;;;4945203;28;20284;-71
2021/04/02 11:51:12;;;;;;;1.30;1.30;;;34.40;20.00;;;;;;4959066;28;20196;-68
2021/04/02 11:53:39;;;;;;;1.10;1.10;;;34.00;20.50;;;;;;4953407;28;20201;-70
2021/04/02 11:56:06;;;;;;;1.77;1.38;;;33.60;20.10;;;;;;4964137;28;20200;-69
2021/04/02 11:58:33;;;;;;;1.13;1.10;;;33.10;20.40;;;;;;4959557;28;20193;-69
2021/04/02 12:01:00;;;;;;;2.63;0.80;;;32.70;20.70;;;;;;4947157;28;20216;-70
2021/04/02 12:03:26;;;;;;;1.10;0.70;;;32.30;21.00;;;;;;4957663;28;20207;-69
2021/04/02 12:05:53;;;;;;;0.98;0.90;;;31.70;21.20;;;;;;4949391;28;20205;-69
2021/04/02 12:08:20;;;;;;;0.80;0.80;;;30.80;21.30;;;;;;4957293;28;20190;-68
2021/04/02 12:10:47;;;;;;;0.70;0.70;;;29.80;21.60;;;;;;4947544;28;20201;-69
2021/04/02 12:13:14;;;;;;;0.93;0.93;;;28.80;22.00;;;;;;4949261;28;20241;-69
2021/04/02 12:15:41;;;;;;;0.90;0.90;;;28.00;22.40;;;;;;4954033;28;20289;-70
2021/04/02 12:18:08;;;;;;;1.70;0.80;;;27.30;22.80;;;;;;4948039;28;20197;-68
2021/04/02 12:20:35;;;;;;;0.70;0.70;;;26.70;23.20;;;;;;4958656;28;20196;-68
2021/04/02 12:23:02;;;;;;;0.77;0.70;;;26.00;23.40;;;;;;4956387;28;20188;-68
2021/04/02 12:25:28;;;;;;;0.63;0.63;;;25.50;23.90;;;;;;4950635;28;20574;-66
2021/04/02 12:27:55;;;;;;;0.60;0.60;;;25.10;24.30;;;;;;4949102;28;20205;-67
2021/04/02 12:30:24;;;;;;;1.27;0.60;;;24.70;24.60;;;;;;4962502;28;20196;-68
2021/04/02 12:32:50;;;;;;;0.70;0.70;;;24.50;25.10;;;;;;4952327;28;20236;-69
2021/04/02 12:35:17;;;;;;;0.68;0.68;;;24.20;25.10;;;;;;4955597;28;20675;-69
2021/04/02 12:37:44;;;;;;;0.70;0.70;;;23.90;25.20;;;;;;4960941;28;20292;-68
2021/04/02 12:40:14;;;;;;;0.50;0.50;;;23.60;25.30;;;;;;4946650;28;20197;-69
2021/04/02 12:42:40;;;;;;;0.80;0.80;;;23.40;25.50;;;;;;4945644;28;20202;-70
2021/04/02 12:45:08;;;;;;;0.77;0.77;;;23.10;26.00;;;;;;4959409;28;20203;-68
2021/04/02 12:47:36;;;;;;;0.80;0.80;;;22.70;26.40;;;;;;4948642;28;20210;-68
2021/04/02 12:50:07;;;;;;;0.85;0.80;;;22.30;26.60;;;;;;4956525;28;20677;-69
2021/04/02 12:52:34;;;;;;;0.70;0.70;;;21.90;26.70;;;;;;4949666;28;20261;-69
2021/04/02 12:55:00;;;;;;;0.88;0.73;;;21.60;26.90;;;;;;4965610;28;20227;-68
2021/04/02 12:57:27;;;;;;;2.53;0.90;;;21.40;27.20;;;;;;4947789;28;20213;-68
2021/04/02 12:59:54;;;;;;;1.65;0.80;;;21.10;27.60;;;;;;4939368;28;20189;-68